Time;durP1;ratioP1;P1;durP2;ratioP2;P2;SDS_P1;SDS_P2;PMS_P1;PMS_P2;Temp;Humidity;BMP_temperature;BMP_pressure;BME280_temperature;BME280_humidity;BME280_pressure;Samples;Min_cycle;Max_cycle;Signal;HPM_P1;HPM_P2
2021/03/05 00:03:48;;;;;;;;;;;6.60;99.90;;;5.30;89.37;95592.34;10355860;28;1999;-87
2021/03/05 00:09:25;;;;;;;;;;;6.10;99.90;;;5.27;89.85;95589.34;10344724;28;2157;-87
2021/03/05 00:14:52;;;;;;;;;;;6.50;99.90;;;5.21;90.15;95591.13;10356361;28;1982;-83
2021/03/05 00:19:54;;;;;;;;;;;6.30;99.90;;;5.21;90.64;95585.78;10327601;28;1861;-84
2021/03/05 00:24:57;;;;;;;;;;;6.10;99.90;;;5.19;90.91;95587.91;10327875;28;1880;-84
2021/03/05 00:30:19;;;;;;;;;;;;;;;;;;;;;
2021/03/05 00:41:32;;;;;;;;;;;6.50;99.90;;;5.22;91.27;95598.09;10304330;28;2061;-85
2021/03/05 00:47:34;;;;;;;;;;;6.00;99.90;;;5.16;91.14;95604.38;10326626;28;1979;-87
2021/03/05 00:58:43;;;;;;;;;;;6.00;99.90;;;5.19;91.41;95598.56;10316949;28;1974;-85
2021/03/05 01:03:45;;;;;;;;;;;6.00;99.90;;;5.17;90.63;95606.00;10331012;28;1683;-87
2021/03/05 01:08:49;;;;;;;;;;;6.10;99.90;;;5.20;91.44;95600.16;10313591;28;2114;-85
2021/03/05 01:13:51;;;;;;;;;;;6.10;99.90;;;5.22;91.49;95602.59;10328489;28;2010;-82
2021/03/05 01:19:05;;;;;;;;;;;6.10;99.90;;;5.25;91.09;95597.59;10322582;28;1979;-84
2021/03/05 01:24:32;;;;;;;;;;;7.00;99.90;;;5.29;91.27;95598.72;10332450;28;2095;-87
2021/03/05 01:30:04;;;;;;;;;;;7.30;99.90;;;5.32;91.37;95592.88;10335602;28;2102;-85
2021/03/05 01:35:28;;;;;;;;;;;7.00;99.90;;;5.28;91.38;95591.78;10297205;28;2250;-86
2021/03/05 01:40:45;;;;;;;;;;;7.20;99.90;;;5.25;91.46;95589.59;10320366;28;2021;-85
2021/03/05 01:46:14;;;;;;;;;;;6.20;99.90;;;5.25;90.99;95586.91;10325300;28;2094;-84
2021/03/05 01:51:27;;;;;;;;;;;7.50;99.90;;;5.29;90.66;95590.72;10318409;28;1945;-86
2021/03/05 02:02:25;;;;;;;;;;;6.20;99.90;;;5.38;90.42;95596.44;10301538;28;2045;-85
2021/03/05 02:08:00;;;;;;;;;;;6.90;99.90;;;5.42;89.89;95585.03;10301393;28;1874;-86
2021/03/05 02:13:13;;;;;;;;;;;6.80;99.90;;;5.44;90.20;95592.78;10320135;28;2024;-87
2021/03/05 02:18:20;;;;;;;;;;;6.30;99.90;;;5.39;90.46;95587.38;10320157;28;1966;-86
2021/03/05 02:23:25;;;;;;;;;;;7.40;99.90;;;5.34;90.08;95600.63;10301404;28;2196;-85
2021/03/05 02:28:46;;;;;;;;;;;6.30;99.90;;;5.37;90.60;95590.28;10327832;28;2200;-86
2021/03/05 02:34:10;;;;;;;;;;;7.10;99.90;;;5.29;90.52;95593.38;10319131;28;2093;-86
2021/03/05 02:39:17;;;;;;;;;;;7.50;99.90;;;5.24;90.72;95587.19;10322435;28;2167;-87
2021/03/05 02:44:20;;;;;;;;;;;7.40;99.90;;;5.19;91.20;95582.56;10323840;28;2086;-87
2021/03/05 02:49:23;;;;;;;;;;;6.10;99.90;;;5.19;91.34;95587.09;10355977;28;1619;-86
2021/03/05 02:54:29;;;;;;;;;;;6.90;99.90;;;5.20;91.10;95586.84;10311510;28;2084;-85
2021/03/05 02:59:36;;;;;;;;;;;7.40;99.90;;;5.27;91.08;95595.47;10343013;28;2434;-87
2021/03/05 03:04:41;;;;;;;;;;;6.70;99.90;;;5.32;90.88;95598.22;10323751;28;2107;-86
2021/03/05 03:09:46;;;;;;;;;;;6.90;99.90;;;5.29;91.05;95593.38;10308625;28;1938;-87
2021/03/05 03:14:56;;;;;;;;;;;6.20;99.90;;;5.21;91.32;95601.78;10314070;28;1981;-86
2021/03/05 03:19:59;;;;;;;;;;;6.90;99.90;;;5.22;91.63;95605.28;10306064;28;2177;-85
2021/03/05 03:25:11;;;;;;;;;;;6.30;99.90;;;5.31;91.43;95607.28;10314449;28;2064;-86
2021/03/05 03:30:14;;;;;;;;;;;6.10;99.90;;;5.28;91.98;95609.59;10316764;28;2065;-86
2021/03/05 03:35:16;;;;;;;;;;;6.20;99.90;;;5.27;91.70;95608.00;10317628;28;1918;-85
2021/03/05 03:40:59;;;;;;;;;;;6.10;99.90;;;5.27;91.03;95616.78;10327320;28;2162;-87
2021/03/05 03:46:06;;;;;;;;;;;7.40;99.90;;;5.35;91.25;95621.72;10340042;28;2064;-85
2021/03/05 03:51:18;;;;;;;;;;;6.20;99.90;;;5.25;90.81;95621.56;10344126;28;1788;-86
2021/03/05 03:56:39;;;;;;;;;;;7.10;99.90;;;5.24;91.03;95622.63;10314414;28;2063;-87
2021/03/05 04:01:46;;;;;;;;;;;6.20;99.90;;;5.23;90.95;95621.00;10316491;28;2058;-85
2021/03/05 04:06:56;;;;;;;;;;;7.20;99.90;;;5.21;91.28;95624.94;10332649;28;2159;-87
2021/03/05 04:12:07;;;;;;;;;;;7.50;99.90;;;5.24;90.76;95622.63;10325349;28;2096;-86
2021/03/05 04:17:15;;;;;;;;;;;6.10;99.90;;;5.30;91.22;95631.50;10333962;28;2113;-85
2021/03/05 04:28:30;;;;;;;;;;;6.30;99.90;;;5.13;91.91;95620.84;10302315;28;2192;-87
2021/03/05 04:34:11;;;;;;;;;;;7.00;99.90;;;5.06;92.39;95631.66;10323405;28;2015;-86
2021/03/05 04:39:42;;;;;;;;;;;6.00;99.90;;;5.02;91.66;95630.53;10321666;28;2058;-85
2021/03/05 04:51:06;;;;;;;;;;;6.30;99.90;;;4.83;92.58;95653.09;10312185;28;2087;-85
2021/03/05 04:56:46;;;;;;;;;;;6.60;99.90;;;4.82;92.80;95652.31;10294841;28;2306;-85
2021/03/05 05:02:27;;;;;;;;;;;6.40;99.90;;;4.75;92.69;95662.31;10309474;28;1882;-84
2021/03/05 05:07:36;;;;;;;;;;;5.60;99.90;;;4.76;93.23;95647.13;10290634;28;2269;-86
2021/03/05 05:12:47;;;;;;;;;;;6.50;99.90;;;4.72;93.14;95657.47;10352528;28;1909;-87
2021/03/05 05:17:55;;;;;;;;;;;6.70;99.90;;;4.71;93.34;95661.19;10358809;28;1993;-86
2021/03/05 05:23:05;;;;;;;;;;;5.50;99.90;;;4.69;92.88;95652.59;10330630;28;2185;-85
2021/03/05 05:28:09;;;;;;;;;;;5.60;99.90;;;4.71;93.17;95666.50;10334914;28;2263;-87
2021/03/05 05:33:25;;;;;;;;;;;6.10;99.90;;;4.64;92.74;95667.69;10326582;28;2073;-86
2021/03/05 05:38:33;;;;;;;;;;;5.50;99.90;;;4.61;93.05;95671.63;10323168;28;2024;-87
2021/03/05 05:49:12;;;;;;;;;;;5.50;99.90;;;4.44;93.57;95674.25;10309054;28;2049;-85
2021/03/05 06:18:15;;;;;;;;;;;5.70;99.90;;;4.16;93.69;95690.19;10322130;28;2064;-84
2021/03/05 06:24:01;;;;;;;;;;;5.00;99.90;;;4.14;94.19;95697.59;10330837;28;2031;-84
2021/03/05 06:29:17;;;;;;;;;;;5.00;99.90;;;3.96;91.61;95698.56;10325286;28;2553;-86
2021/03/05 06:34:58;;;;;;;;;;;5.00;99.90;;;3.98;92.91;95715.06;10310315;28;2099;-85
2021/03/05 06:46:03;;;;;;;;;;;6.20;99.90;;;3.89;92.14;95732.44;10318197;28;1526;-83
2021/03/05 06:51:44;;;;;;;;;;;4.80;99.90;;;3.81;91.39;95744.22;10294581;28;2145;-87
2021/03/05 06:57:05;;;;;;;;;;;4.80;99.90;;;3.73;91.74;95750.69;10323718;28;2098;-84
2021/03/05 07:19:44;;;;;;;;;;;4.30;99.90;;;3.20;91.85;95796.72;10300189;28;2467;-85
2021/03/05 07:30:53;;;;;;;;;;;4.00;99.90;;;3.00;92.82;95809.47;10334271;28;2108;-84
2021/03/05 07:36:24;;;;;;;;;;;5.20;99.90;;;2.95;93.11;95814.63;10339876;28;2068;-85
2021/03/05 07:47:19;;;;;;;;;;;3.70;99.90;;;2.58;92.92;95833.25;10282717;28;2391;-82
2021/03/05 07:53:16;;;;;;;;;;;3.60;99.90;;;2.44;92.96;95837.09;10302707;28;2243;-84
2021/03/05 07:59:04;;;;;;;;;;;3.30;99.90;;;2.36;93.51;95850.66;10288986;28;2165;-86
2021/03/05 08:04:24;;;;;;;;;;;3.30;99.90;;;2.21;92.87;95853.66;10307175;28;2462;-85
2021/03/05 08:09:28;;;;;;;;;;;3.10;99.90;;;2.21;93.71;95874.06;10335944;28;2195;-85
2021/03/05 08:14:44;;;;;;;;;;;3.20;99.90;;;1.66;92.69;95868.63;10337213;28;2064;-85
2021/03/05 08:20:19;;;;;;;;;;;2.80;99.90;;;1.66;94.21;95890.63;10321157;28;1948;-83
2021/03/05 08:25:24;;;;;;;;;;;2.50;99.90;;;1.50;94.00;95885.84;10326266;28;2017;-84
2021/03/05 08:30:37;;;;;;;;;;;3.80;99.90;;;1.43;93.72;95904.41;10305588;28;1792;-83
2021/03/05 08:36:03;;;;;;;;;;;3.00;99.90;;;1.51;94.35;95913.94;10299195;28;2230;-84
2021/03/05 08:46:37;;;;;;;;;;;2.60;99.90;;;1.50;93.54;95915.78;10308428;28;2017;-83
2021/03/05 08:51:45;;;;;;;;;;;2.70;99.90;;;1.60;92.64;95926.75;10341773;28;1904;-85
2021/03/05 08:57:02;;;;;;;;;;;3.40;99.90;;;1.71;92.55;95935.81;10339190;28;2021;-85
2021/03/05 09:02:09;;;;;;;;;;;2.60;99.90;;;1.80;92.07;95942.50;10306045;28;2031;-87
2021/03/05 09:25:26;;;;;;;;;;;2.40;99.90;;;1.39;92.86;95974.72;10225748;28;1798;-84
2021/03/05 09:53:38;;;;;;;;;;;1.90;99.90;;;1.12;94.89;96020.88;10345266;28;1972;-86
2021/03/05 10:28:14;;;;;;;;;;;2.80;99.90;;;1.93;90.21;96065.41;10264383;28;1570;-84
2021/03/05 10:58:18;;;;;;;;;;;3.50;99.90;;;2.03;89.72;96100.19;10160690;29;1968;-81
2021/03/05 11:09:25;;;;;;;;;;;2.80;99.90;;;1.82;89.18;96114.56;10272269;28;2147;-84
2021/03/05 11:15:11;;;;;;;;;;;3.90;99.90;;;1.49;87.71;96126.09;10210100;29;2415;-85
2021/03/05 11:20:42;;;;;;;;;;;2.60;99.90;;;1.34;89.53;96129.00;10196618;29;2275;-85
2021/03/05 11:49:44;;;;;;;;;;;3.10;99.90;;;2.51;85.69;96135.03;10146591;29;2662;-83
2021/03/05 11:55:00;;;;;;;;;;;4.00;99.90;;;2.23;82.04;96142.53;10239768;29;2191;-84
2021/03/05 12:00:37;;;;;;;;;;;3.20;99.90;;;2.35;83.09;96139.00;10248853;29;1791;-84
2021/03/05 12:05:53;;;;;;;;;;;3.20;99.90;;;2.85;80.97;96130.28;10219388;29;1716;-81
2021/03/05 12:17:43;;;;;;;;;;;;;;;;;;;;;
2021/03/05 12:23:02;;;;;;;;;;;4.40;99.90;;;3.67;77.27;96149.59;10251421;28;2108;-84
2021/03/05 12:28:44;;;;;;;;;;;4.60;99.90;;;3.85;75.02;96151.44;10362405;23;2012;-84
2021/03/05 13:04:36;;;;;;;;;;;4.70;99.90;;;3.57;74.04;96152.75;10269173;28;2137;-84
2021/03/05 13:26:25;;;;;;;;;;;5.10;99.90;;;4.15;74.95;96168.28;2742382;26;1639;-84
2021/03/05 13:37:19;;;;;;;;;;;4.80;99.90;;;3.80;71.44;96176.03;10216365;28;2150;-84
2021/03/05 13:42:35;;;;;;;;;;;4.90;99.90;;;3.83;71.56;96183.59;10278078;28;2012;-85
2021/03/05 13:48:25;;;;;;;;;;;4.70;99.90;;;3.83;71.96;96185.44;10271424;28;1997;-84
2021/03/05 13:53:37;;;;;;;;;;;4.80;99.90;;;3.77;70.27;96195.09;10297704;28;1754;-85
2021/03/05 13:58:52;;;;;;;;;;;4.70;99.90;;;3.75;69.88;96200.66;10287919;28;2035;-83
2021/03/05 14:04:12;;;;;;;;;;;5.80;99.90;;;3.64;69.84;96203.22;10265480;28;2027;-83
2021/03/05 14:09:15;;;;;;;;;;;4.60;99.90;;;3.19;70.28;96212.19;10288093;28;1552;-86
2021/03/05 14:14:24;;;;;;;;;;;5.40;99.90;;;3.45;71.99;96210.34;10269283;28;1922;-85
2021/03/05 14:19:39;;;;;;;;;;;4.70;99.90;;;3.78;75.18;96213.47;10285175;28;1801;-85
2021/03/05 14:24:46;;;;;;;;;;;4.50;99.90;;;3.82;74.63;96221.84;10266671;28;2021;-85
2021/03/05 14:29:49;;;;;;;;;;;4.60;99.90;;;3.86;74.19;96224.88;10264924;28;2017;-83
2021/03/05 14:34:53;;;;;;;;;;;4.70;99.90;;;3.89;73.82;96217.28;10268484;28;1955;-85
2021/03/05 14:39:58;;;;;;;;;;;4.70;99.90;;;3.94;72.87;96230.69;10263428;28;2060;-87
2021/03/05 14:51:04;;;;;;;;;;;5.70;99.90;;;4.10;72.09;96239.97;10281301;28;1887;-86
2021/03/05 14:56:07;;;;;;;;;;;5.00;99.90;;;4.00;71.50;96256.41;10279595;28;1993;-85
2021/03/05 15:01:10;;;;;;;;;;;4.80;99.90;;;3.54;72.23;96251.53;10284191;28;1654;-85
2021/03/05 15:06:16;;;;;;;;;;;4.50;99.90;;;3.56;72.40;96264.59;10293868;28;1324;-83
2021/03/05 15:11:35;;;;;;;;;;;4.50;99.90;;;3.47;71.79;96274.69;10288486;28;1356;-85
2021/03/05 15:16:41;;;;;;;;;;;5.70;99.90;;;3.19;71.43;96281.25;10306770;28;2055;-84
2021/03/05 15:27:12;;;;;;;;;;;4.80;99.90;;;3.07;71.79;96298.09;10309782;28;2056;-82
2021/03/05 15:32:15;;;;;;;;;;;4.10;99.90;;;2.91;72.73;96310.00;10287124;28;1770;-85
2021/03/05 15:37:25;;;;;;;;;;;3.90;99.90;;;2.76;74.27;96320.91;10288178;28;2445;-84
2021/03/05 15:42:40;;;;;;;;;;;3.70;99.90;;;2.60;76.06;96324.03;10271868;28;1946;-83
2021/03/05 15:53:34;;;;;;;;;;;3.50;99.90;;;2.23;81.17;96339.66;10275916;28;2040;-82
2021/03/05 15:58:58;;;;;;;;;;;3.90;99.90;;;1.73;81.91;96357.03;10277018;28;2026;-85
2021/03/05 16:05:00;;;;;;;;;;;4.20;99.90;;;0.58;85.31;96382.59;10414387;23;3990;-86
2021/03/05 17:58:36;;;;;;;;;;;0.60;99.90;;;-0.18;89.79;96564.03;10187554;29;2154;-87
2021/03/05 18:10:42;;;;;;;;;;;0.70;99.90;;;0.01;90.12;96587.22;10152424;29;2458;-85
2021/03/05 18:34:03;;;;;;;;;;;0.90;99.90;;;0.01;89.59;96612.81;10276940;28;1894;-85
2021/03/05 18:39:34;;;;;;;;;;;1.50;99.90;;;0.07;88.52;96620.81;10235145;28;2347;-83
2021/03/05 18:51:41;;;;;;;;;;;1.80;99.90;;;-0.01;88.32;96621.72;10309036;28;1900;-87
2021/03/05 19:03:55;;;;;;;;;;;0.90;99.90;;;-0.09;87.59;96645.63;10232548;28;1647;-85
2021/03/05 19:15:32;;;;;;;;;;;0.80;99.90;;;0.05;88.63;96656.38;10282043;28;1950;-83
2021/03/05 19:40:15;;;;;;;;;;;1.50;99.90;;;0.10;86.27;96707.69;9780818;29;2244;-84
2021/03/05 19:52:14;;;;;;;;;;;1.80;99.90;;;-0.16;86.32;96718.75;10262837;28;2074;-86
2021/03/05 21:27:53;;;;;;;;;;;0.80;99.90;;;-1.13;74.35;96837.44;10088439;29;2055;-85
2021/03/05 21:33:06;;;;;;;;;;;-0.20;99.90;;;-1.18;74.16;96841.59;10133695;29;2146;-87
2021/03/05 21:38:18;;;;;;;;;;;-0.30;99.90;;;-1.33;74.94;96838.88;10155413;29;2044;-85
2021/03/05 21:43:29;;;;;;;;;;;-0.20;99.90;;;-1.48;74.53;96843.22;10167048;29;2238;-86
2021/03/05 21:48:38;;;;;;;;;;;0.20;99.90;;;-1.57;76.99;96854.81;10140634;29;2132;-88
2021/03/05 21:53:44;;;;;;;;;;;0.40;99.90;;;-1.68;74.42;96854.19;10139536;29;1924;-87
2021/03/05 21:58:49;;;;;;;;;;;0.40;99.90;;;-1.77;74.93;96857.84;10243773;28;2009;-86
2021/03/05 22:03:52;;;;;;;;;;;-0.70;99.90;;;-1.81;75.40;96858.34;10280580;28;2117;-87
2021/03/05 22:08:57;;;;;;;;;;;0.70;99.90;;;-1.90;74.44;96865.47;10295061;28;1759;-84
2021/03/05 22:14:15;;;;;;;;;;;-0.50;99.90;;;-1.96;74.05;96853.78;10275022;28;2048;-88
2021/03/05 22:19:26;;;;;;;;;;;-0.40;99.90;;;-2.02;75.19;96861.53;10282826;28;2017;-88
2021/03/05 22:24:56;;;;;;;;;;;-0.20;99.90;;;-2.06;76.67;96857.59;10275465;28;1663;-86
2021/03/05 22:30:32;;;;;;;;;;;;;;;;;;;;;
2021/03/05 22:35:48;;;;;;;;;;;-1.10;99.90;;;-2.15;74.72;96845.44;10286391;28;1914;-84
2021/03/05 22:40:59;;;;;;;;;;;-0.40;99.90;;;-2.19;77.39;96845.75;10297973;28;1777;-85
2021/03/05 22:46:04;;;;;;;;;;;-1.10;99.90;;;-2.31;76.43;96854.16;10264004;28;2013;-87
2021/03/05 22:51:06;;;;;;;;;;;-0.80;99.90;;;-2.39;77.83;96854.19;10279513;28;1758;-86
2021/03/05 22:56:14;;;;;;;;;;;0.10;99.90;;;-2.39;78.34;96849.75;10287252;28;1976;-86
2021/03/05 23:01:23;;;;;;;;;;;-1.00;99.90;;;-2.43;78.30;96858.13;10275763;28;1934;-89
2021/03/05 23:06:47;;;;;;;;;;;-0.20;99.90;;;-2.47;77.99;96858.47;10289200;28;2137;-89
2021/03/05 23:12:03;;;;;;;;;;;-1.40;99.90;;;-2.48;78.21;96864.72;10308959;28;1784;-86
2021/03/05 23:17:22;;;;;;;;;;;-0.40;99.90;;;-2.53;78.20;96863.59;10280143;28;1954;-86
2021/03/05 23:22:35;;;;;;;;;;;-1.50;99.90;;;-2.52;78.62;96859.97;10307023;28;1600;-88
2021/03/05 23:27:45;;;;;;;;;;;-1.40;99.90;;;-2.52;78.86;96870.50;10289286;28;1997;-88
2021/03/05 23:32:57;;;;;;;;;;;-0.70;99.90;;;-2.66;79.61;96868.53;10278045;28;1442;-87
2021/03/05 23:38:02;;;;;;;;;;;-1.70;99.90;;;-2.58;79.85;96881.66;10295875;28;2211;-87
2021/03/05 23:43:10;;;;;;;;;;;-1.70;99.90;;;-2.65;79.71;96878.06;10273190;28;2044;-88
2021/03/05 23:48:21;;;;;;;;;;;-1.70;99.90;;;-2.61;79.45;96881.97;10285788;28;1897;-89
2021/03/05 23:53:24;;;;;;;;;;;-0.90;99.90;;;-2.73;79.59;96877.06;10287658;28;1769;-86
2021/03/05 23:58:34;;;;;;;;;;;-1.00;99.90;;;-2.79;80.24;96890.06;10301549;28;1895;-86
